Time,TemperatureF,DewpointF,PressureIn,WindDirection,WindDirectionDegrees,WindSpeedMPH,WindSpeedGustMPH,Humidity,HourlyPrecipIn,Conditions,Clouds,dailyrainin,SoftwareType,DateUTC
2013-04-27 00:11:00,51.3,46.0,30.18,SE,128,0.0,-999.0,81,-99.99,,,0.00,weatherlink.com 1.10,2013-04-27 07:11:00,
2013-04-27 00:26:00,50.8,46.0,30.18,SE,128,0.0,-999.0,82,-99.99,,,0.00,weatherlink.com 1.10,2013-04-27 07:26:00,
2013-04-27 00:41:00,50.2,45.0,30.18,SE,128,0.0,-999.0,81,-99.99,,,0.00,weatherlink.com 1.10,2013-04-27 07:41:00,
2013-04-27 00:56:00,49.4,44.0,30.18,SE,128,0.0,-999.0,82,-99.99,,,0.00,weatherlink.com 1.10,2013-04-27 07:56:00,
2013-04-27 01:11:00,48.5,44.0,30.18,SE,128,0.0,-999.0,84,-99.99,,,0.00,weatherlink.com 1.10,2013-04-27 08:11:00,
2013-04-27 01:26:00,47.7,43.0,30.18,SE,128,0.0,-999.0,85,-99.99,,,0.00,weatherlink.com 1.10,2013-04-27 08:26:00,
2013-04-27 01:41:00,47.1,43.0,30.17,SE,128,0.0,-999.0,85,-99.99,,,0.00,weatherlink.com 1.10,2013-04-27 08:41:00,
2013-04-27 01:56:00,46.8,43.0,30.18,SE,128,0.0,-999.0,87,-99.99,,,0.00,weatherlink.com 1.10,2013-04-27 08:56:00,
2013-04-27 02:11:00,46.5,43.0,30.17,SE,128,0.0,-999.0,87,-99.99,,,0.00,weatherlink.com 1.10,2013-04-27 09:11:00,
2013-04-27 02:27:00,46.2,43.0,30.17,SE,128,0.0,-999.0,87,-99.99,,,0.00,weatherlink.com 1.10,2013-04-27 09:27:00,
2013-04-27 02:42:00,46.1,43.0,30.17,SE,128,0.0,-999.0,88,-99.99,,,0.00,weatherlink.com 1.10,2013-04-27 09:42:00,
2013-04-27 02:57:00,46.2,43.0,30.16,SE,128,0.0,-999.0,89,-99.99,,,0.00,weatherlink.com 1.10,2013-04-27 09:57:00,
2013-04-27 03:12:00,46.8,44.0,30.16,SE,128,0.0,-999.0,90,-99.99,,,0.00,weatherlink.com 1.10,2013-04-27 10:12:00,
2013-04-27 03:27:00,47.4,45.0,30.16,SE,128,0.0,-999.0,90,-99.99,,,0.00,weatherlink.com 1.10,2013-04-27 10:27:00,
2013-04-27 03:42:00,48.0,45.0,30.16,SE,128,0.0,-999.0,90,-99.99,,,0.00,weatherlink.com 1.10,2013-04-27 10:42:00,
2013-04-27 03:57:00,48.3,46.0,30.16,SE,128,0.0,-999.0,91,-99.99,,,0.00,weatherlink.com 1.10,2013-04-27 10:57:00,
2013-04-27 04:12:00,48.6,46.0,30.16,SE,128,0.0,-999.0,91,-99.99,,,0.00,weatherlink.com 1.10,2013-04-27 11:12:00,
2013-04-27 04:27:00,48.5,46.0,30.16,SE,128,0.0,-999.0,90,-99.99,,,0.00,weatherlink.com 1.10,2013-04-27 11:27:00,
2013-04-27 04:42:00,48.3,46.0,30.16,SE,128,0.0,-999.0,90,-99.99,,,0.00,weatherlink.com 1.10,2013-04-27 11:42:00,
2013-04-27 04:57:00,48.0,45.0,30.16,SE,128,0.0,-999.0,89,-99.99,,,0.00,weatherlink.com 1.10,2013-04-27 11:57:00,
2013-04-27 05:12:00,47.9,45.0,30.17,SE,128,0.0,-999.0,89,-99.99,,,0.00,weatherlink.com 1.10,2013-04-27 12:12:00,
2013-04-27 05:27:00,47.9,45.0,30.17,SE,128,0.0,-999.0,90,-99.99,,,0.00,weatherlink.com 1.10,2013-04-27 12:27:00,
2013-04-27 05:42:00,47.9,45.0,30.17,SE,128,0.0,-999.0,90,-99.99,,,0.00,weatherlink.com 1.10,2013-04-27 12:42:00,
2013-04-27 05:57:00,47.9,45.0,30.17,SE,128,0.0,-999.0,89,-99.99,,,0.00,weatherlink.com 1.10,2013-04-27 12:57:00,
2013-04-27 06:12:00,47.7,45.0,30.17,SE,128,0.0,-999.0,89,-99.99,,,0.00,weatherlink.com 1.10,2013-04-27 13:12:00,
2013-04-27 06:27:00,47.6,45.0,30.17,SE,128,0.0,-999.0,90,-99.99,,,0.00,weatherlink.com 1.10,2013-04-27 13:27:00,
2013-04-27 06:42:00,47.6,45.0,30.18,East,87,0.0,-999.0,90,-99.99,,,0.00,weatherlink.com 1.10,2013-04-27 13:42:00,
2013-04-27 06:57:00,47.6,45.0,30.18,East,87,0.0,-999.0,90,-99.99,,,0.00,weatherlink.com 1.10,2013-04-27 13:57:00,
2013-04-27 07:12:00,47.4,45.0,30.18,East,87,0.0,-999.0,90,-99.99,,,0.00,weatherlink.com 1.10,2013-04-27 14:12:00,
2013-04-27 07:27:00,47.4,45.0,30.18,East,87,0.0,-999.0,90,-99.99,,,0.00,weatherlink.com 1.10,2013-04-27 14:27:00,
2013-04-27 07:42:00,47.4,45.0,30.19,East,87,0.0,-999.0,90,-99.99,,,0.00,weatherlink.com 1.10,2013-04-27 14:42:00,
2013-04-27 07:57:00,47.4,45.0,30.19,East,87,0.0,-999.0,90,-99.99,,,0.00,weatherlink.com 1.10,2013-04-27 14:57:00,
2013-04-27 08:12:00,47.7,45.0,30.19,SW,227,0.0,-999.0,90,-99.99,,,0.00,weatherlink.com 1.10,2013-04-27 15:12:00,
2013-04-27 08:27:00,48.3,46.0,30.20,SW,223,0.0,-999.0,90,-99.99,,,0.00,weatherlink.com 1.10,2013-04-27 15:27:00,
2013-04-27 08:42:00,48.9,46.0,30.20,ESE,103,0.0,-999.0,90,-99.99,,,0.00,weatherlink.com 1.10,2013-04-27 15:42:00,
2013-04-27 08:57:00,49.6,47.0,30.20,ESE,103,0.0,-999.0,89,-99.99,,,0.00,weatherlink.com 1.10,2013-04-27 15:57:00,
2013-04-27 09:12:00,50.8,47.0,30.20,ESE,103,0.0,-999.0,87,-99.99,,,0.00,weatherlink.com 1.10,2013-04-27 16:12:00,
2013-04-27 09:27:00,52.2,48.0,30.20,East,97,4.0,-999.0,85,-99.99,,,0.00,weatherlink.com 1.10,2013-04-27 16:27:00,
2013-04-27 09:42:00,54.2,48.0,30.20,South,169,1.0,-999.0,79,-99.99,,,0.00,weatherlink.com 1.10,2013-04-27 16:42:00,
2013-04-27 09:57:00,56.2,48.0,30.20,SE,133,1.0,-999.0,74,-99.99,,,0.00,weatherlink.com 1.10,2013-04-27 16:57:00,
2013-04-27 10:12:00,57.8,48.0,30.19,SE,132,0.0,-999.0,71,-99.99,,,0.00,weatherlink.com 1.10,2013-04-27 17:12:00,
2013-04-27 10:27:00,59.5,49.0,30.19,SE,145,0.0,-999.0,68,-99.99,,,0.00,weatherlink.com 1.10,2013-04-27 17:27:00,
2013-04-27 10:42:00,60.9,49.0,30.19,SE,146,0.0,-999.0,65,-99.99,,,0.00,weatherlink.com 1.10,2013-04-27 17:42:00,
2013-04-27 10:58:00,62.6,49.0,30.19,SE,142,3.0,-999.0,62,-99.99,,,0.00,weatherlink.com 1.10,2013-04-27 17:58:00,
2013-04-27 11:12:00,63.4,50.0,30.19,SE,132,3.0,-999.0,61,-99.99,,,0.00,weatherlink.com 1.10,2013-04-27 18:12:00,
2013-04-27 11:28:00,64.8,50.0,30.19,SE,145,2.0,-999.0,59,-99.99,,,0.00,weatherlink.com 1.10,2013-04-27 18:28:00,
2013-04-27 11:43:00,66.1,51.0,30.18,SE,134,2.0,-999.0,58,-99.99,,,0.00,weatherlink.com 1.10,2013-04-27 18:43:00,
2013-04-27 11:58:00,68.1,51.0,30.18,SSE,156,0.0,-999.0,54,-99.99,,,0.00,weatherlink.com 1.10,2013-04-27 18:58:00,
2013-04-27 12:13:00,69.8,51.0,30.17,West,269,0.0,-999.0,52,-99.99,,,0.00,weatherlink.com 1.10,2013-04-27 19:13:00,
2013-04-27 12:28:00,71.6,52.0,30.16,South,181,1.0,-999.0,51,-99.99,,,0.00,weatherlink.com 1.10,2013-04-27 19:28:00,
2013-04-27 12:43:00,72.8,52.0,30.16,SSW,194,0.0,-999.0,48,-99.99,,,0.00,weatherlink.com 1.10,2013-04-27 19:43:00,
2013-04-27 12:58:00,73.7,52.0,30.15,SE,138,0.0,-999.0,47,-99.99,,,0.00,weatherlink.com 1.10,2013-04-27 19:58:00,
2013-04-27 13:13:00,75.3,52.0,30.14,ESE,114,3.0,-999.0,45,-99.99,,,0.00,weatherlink.com 1.10,2013-04-27 20:13:00,
2013-04-27 13:28:00,76.7,52.0,30.13,ESE,111,0.0,-999.0,43,-99.99,,,0.00,weatherlink.com 1.10,2013-04-27 20:28:00,
2013-04-27 13:43:00,77.7,53.0,30.13,SSE,155,1.0,-999.0,43,-99.99,,,0.00,weatherlink.com 1.10,2013-04-27 20:43:00,
2013-04-27 13:58:00,79.2,53.0,30.12,SSE,156,1.0,-999.0,41,-99.99,,,0.00,weatherlink.com 1.10,2013-04-27 20:58:00,
2013-04-27 14:13:00,79.6,54.0,30.11,ESE,117,0.0,-999.0,41,-99.99,,,0.00,weatherlink.com 1.10,2013-04-27 21:13:00,
2013-04-27 14:28:00,81.4,54.0,30.11,South,170,0.0,-999.0,39,-99.99,,,0.00,weatherlink.com 1.10,2013-04-27 21:28:00,
2013-04-27 14:43:00,81.2,55.0,30.10,SSE,147,2.0,-999.0,40,-99.99,,,0.00,weatherlink.com 1.10,2013-04-27 21:43:00,
2013-04-27 14:58:00,82.2,56.0,30.10,ESE,106,0.0,-999.0,40,-99.99,,,0.00,weatherlink.com 1.10,2013-04-27 21:58:00,
2013-04-27 15:13:00,82.8,55.0,30.08,SE,140,4.0,-999.0,39,-99.99,,,0.00,weatherlink.com 1.10,2013-04-27 22:13:00,
2013-04-27 15:28:00,83.2,55.0,30.08,SE,126,0.0,-999.0,38,-99.99,,,0.00,weatherlink.com 1.10,2013-04-27 22:28:00,
2013-04-27 15:43:00,84.3,55.0,30.07,SE,128,1.0,-999.0,37,-99.99,,,0.00,weatherlink.com 1.10,2013-04-27 22:43:00,
2013-04-27 15:58:00,84.9,55.0,30.06,SE,129,0.0,-999.0,36,-99.99,,,0.00,weatherlink.com 1.10,2013-04-27 22:58:00,
2013-04-27 16:14:00,85.9,46.0,30.05,WSW,250,0.0,-999.0,25,-99.99,,,0.00,weatherlink.com 1.10,2013-04-27 23:14:00,
2013-04-27 16:29:00,87.4,48.0,30.04,SW,227,5.0,-999.0,25,-99.99,,,0.00,weatherlink.com 1.10,2013-04-27 23:29:00,
2013-04-27 16:44:00,87.2,47.0,30.03,WNW,286,2.0,-999.0,25,-99.99,,,0.00,weatherlink.com 1.10,2013-04-27 23:44:00,
2013-04-27 16:59:00,87.0,46.0,30.03,WSW,251,4.0,-999.0,24,-99.99,,,0.00,weatherlink.com 1.10,2013-04-27 23:59:00,
2013-04-27 17:14:00,87.0,44.0,30.02,WSW,254,0.0,-999.0,22,-99.99,,,0.00,weatherlink.com 1.10,2013-04-28 00:14:00,
2013-04-27 17:29:00,87.4,46.0,30.02,WNW,286,3.0,-999.0,24,-99.99,,,0.00,weatherlink.com 1.10,2013-04-28 00:29:00,
2013-04-27 17:44:00,87.0,49.0,30.02,WNW,284,0.0,-999.0,27,-99.99,,,0.00,weatherlink.com 1.10,2013-04-28 00:44:00,
2013-04-27 17:59:00,85.9,55.0,30.02,SE,130,1.0,-999.0,35,-99.99,,,0.00,weatherlink.com 1.10,2013-04-28 00:59:00,
2013-04-27 18:14:00,83.4,55.0,30.03,SSE,148,1.0,-999.0,38,-99.99,,,0.00,weatherlink.com 1.10,2013-04-28 01:14:00,
2013-04-27 18:29:00,80.7,54.0,30.02,SE,140,2.0,-999.0,40,-99.99,,,0.00,weatherlink.com 1.10,2013-04-28 01:29:00,
2013-04-27 18:44:00,78.8,54.0,30.02,SE,143,0.0,-999.0,43,-99.99,,,0.00,weatherlink.com 1.10,2013-04-28 01:44:00,
2013-04-27 18:59:00,77.2,54.0,30.02,South,183,3.0,-999.0,44,-99.99,,,0.00,weatherlink.com 1.10,2013-04-28 01:59:00,
2013-04-27 19:14:00,75.8,53.0,30.02,South,169,0.0,-999.0,46,-99.99,,,0.00,weatherlink.com 1.10,2013-04-28 02:14:00,
2013-04-27 19:29:00,74.4,53.0,30.02,SE,128,3.0,-999.0,48,-99.99,,,0.00,weatherlink.com 1.10,2013-04-28 02:29:00,
2013-04-27 19:44:00,72.7,53.0,30.02,SE,128,4.0,-999.0,50,-99.99,,,0.00,weatherlink.com 1.10,2013-04-28 02:44:00,
2013-04-27 19:59:00,70.9,52.0,30.02,SE,132,0.0,-999.0,51,-99.99,,,0.00,weatherlink.com 1.10,2013-04-28 02:59:00,
2013-04-27 20:14:00,69.4,51.0,30.03,SSE,161,1.0,-999.0,52,-99.99,,,0.00,weatherlink.com 1.10,2013-04-28 03:14:00,
2013-04-27 20:29:00,67.9,50.0,30.03,SE,134,0.0,-999.0,54,-99.99,,,0.00,weatherlink.com 1.10,2013-04-28 03:29:00,
2013-04-27 20:44:00,66.9,51.0,30.04,SE,132,0.0,-999.0,56,-99.99,,,0.00,weatherlink.com 1.10,2013-04-28 03:44:00,
2013-04-27 20:59:00,65.8,50.0,30.04,SE,132,0.0,-999.0,58,-99.99,,,0.00,weatherlink.com 1.10,2013-04-28 03:59:00,
2013-04-27 21:14:00,65.2,51.0,30.04,SE,132,0.0,-999.0,60,-99.99,,,0.00,weatherlink.com 1.10,2013-04-28 04:14:00,
2013-04-27 21:29:00,64.3,50.0,30.04,SE,132,0.0,-999.0,61,-99.99,,,0.00,weatherlink.com 1.10,2013-04-28 04:29:00,
2013-04-27 21:44:00,63.4,50.0,30.05,SE,132,0.0,-999.0,63,-99.99,,,0.00,weatherlink.com 1.10,2013-04-28 04:44:00,
2013-04-27 21:59:00,62.1,50.0,30.05,SE,132,0.0,-999.0,65,-99.99,,,0.00,weatherlink.com 1.10,2013-04-28 04:59:00,
2013-04-27 22:14:00,60.7,50.0,30.05,SE,132,0.0,-999.0,68,-99.99,,,0.00,weatherlink.com 1.10,2013-04-28 05:14:00,
2013-04-27 22:29:00,59.5,50.0,30.05,SE,132,0.0,-999.0,71,-99.99,,,0.00,weatherlink.com 1.10,2013-04-28 05:29:00,
2013-04-27 22:44:00,58.4,49.0,30.05,SE,132,0.0,-999.0,72,-99.99,,,0.00,weatherlink.com 1.10,2013-04-28 05:44:00,
2013-04-27 22:59:00,57.3,49.0,30.05,SE,132,0.0,-999.0,74,-99.99,,,0.00,weatherlink.com 1.10,2013-04-28 05:59:00,
2013-04-27 23:14:00,56.5,49.0,30.05,SE,132,0.0,-999.0,76,-99.99,,,0.00,weatherlink.com 1.10,2013-04-28 06:14:00,
2013-04-27 23:29:00,55.7,48.0,30.05,SE,132,0.0,-999.0,76,-99.99,,,0.00,weatherlink.com 1.10,2013-04-28 06:29:00,
2013-04-27 23:44:00,55.0,48.0,30.05,SE,132,0.0,-999.0,78,-99.99,,,0.00,weatherlink.com 1.10,2013-04-28 06:44:00,
2013-04-27 23:59:00,54.4,48.0,30.05,SE,132,0.0,-999.0,80,-99.99,,,0.00,weatherlink.com 1.10,2013-04-28 06:59:00,